ARG1786 SABE-SARI
Flight info
| Callsign | ARG1786 |
|---|---|
| Flight time | 1h 34m |
| Altitude | 33000 |
| Route | LANDA4B LANDA UN785 GEMSU UT667 DOKBA DOKBA3M |
| Aircraft | B738/M-SDE2E3FGHIRWXY/LB1 |
Departure
| Time | 2026-05-07 17:26 |
|---|---|
| Airport | Aeroparque Jorge Newbery (SABE) |
Arrival
| Time | 2026-05-07 19:00 |
|---|---|
| Airport | Cataratas Del Iguazú International Airport (SARI) |
| Time | Latitude | Longitude | Altitude | Speed | Heading |
|---|---|---|---|---|---|
| 2026-05-07 16:09 | -34.56057 | -58.40884 | 25 ft | 0 kts | 37° |
| 2026-05-07 17:17 | -34.56058 | -58.40884 | 24 ft | 2 kts | 37° |
| 2026-05-07 17:17 | -34.56078 | -58.40903 | 4 ft | 4 kts | 35° |
| 2026-05-07 17:17 | -34.56101 | -58.40919 | 26 ft | 4 kts | 13° |
| 2026-05-07 17:17 | -34.56120 | -58.40917 | 29 ft | 3 kts | 313° |
| 2026-05-07 17:18 | -34.56135 | -58.40894 | 28 ft | 1 kts | 306° |
| 2026-05-07 17:20 | -34.56136 | -58.40907 | 28 ft | 2 kts | 248° |
| 2026-05-07 17:20 | -34.56156 | -58.40905 | 26 ft | 5 kts | 146° |
| 2026-05-07 17:21 | -34.56173 | -58.40855 | 27 ft | 7 kts | 103° |
| 2026-05-07 17:21 | -34.56189 | -58.40803 | 26 ft | 7 kts | 119° |
| 2026-05-07 17:21 | -34.56213 | -58.40756 | 26 ft | 7 kts | 123° |
| 2026-05-07 17:21 | -34.56238 | -58.40710 | 28 ft | 6 kts | 123° |
| 2026-05-07 17:22 | -34.56263 | -58.40666 | 26 ft | 6 kts | 124° |
| 2026-05-07 17:22 | -34.56287 | -58.40623 | 24 ft | 6 kts | 124° |
| 2026-05-07 17:22 | -34.56313 | -58.40582 | 24 ft | 6 kts | 133° |
| 2026-05-07 17:22 | -34.56343 | -58.40548 | 26 ft | 6 kts | 137° |
| 2026-05-07 17:23 | -34.56373 | -58.40514 | 24 ft | 6 kts | 137° |
| 2026-05-07 17:23 | -34.56403 | -58.40481 | 24 ft | 6 kts | 137° |
| 2026-05-07 17:23 | -34.56433 | -58.40449 | 24 ft | 6 kts | 138° |
| 2026-05-07 17:23 | -34.56462 | -58.40417 | 24 ft | 6 kts | 138° |
| 2026-05-07 17:24 | -34.56492 | -58.40386 | 26 ft | 6 kts | 149° |
| 2026-05-07 17:24 | -34.56529 | -58.40390 | 24 ft | 5 kts | 207° |
| 2026-05-07 17:24 | -34.56555 | -58.40421 | 24 ft | 5 kts | 244° |
| 2026-05-07 17:24 | -34.56550 | -58.40455 | 24 ft | 0 kts | 302° |
| 2026-05-07 17:25 | -34.56548 | -58.40459 | 26 ft | 4 kts | 302° |
| 2026-05-07 17:25 | -34.56385 | -58.40754 | 27 ft | 82 kts | 304° |
| 2026-05-07 17:25 | -34.55924 | -58.41580 | 30 ft | 152 kts | 304° |
| 2026-05-07 17:25 | -34.55280 | -58.42730 | 588 ft | 172 kts | 303° |
| 2026-05-07 17:26 | -34.54530 | -58.43895 | 1443 ft | 179 kts | 322° |
| 2026-05-07 17:26 | -34.53321 | -58.44402 | 1982 ft | 203 kts | 358° |
| 2026-05-07 17:26 | -34.51857 | -58.44124 | 2309 ft | 226 kts | 14° |
| 2026-05-07 17:26 | -34.50405 | -58.43169 | 2688 ft | 249 kts | 30° |
| 2026-05-07 17:27 | -34.48912 | -58.41949 | 3157 ft | 265 kts | 27° |
| 2026-05-07 17:27 | -34.47355 | -58.40783 | 4124 ft | 262 kts | 26° |
| 2026-05-07 17:27 | -34.45804 | -58.39618 | 4763 ft | 259 kts | 26° |
| 2026-05-07 17:27 | -34.44171 | -58.38633 | 5448 ft | 259 kts | 6° |
| 2026-05-07 17:28 | -34.42421 | -58.38798 | 6208 ft | 252 kts | 341° |
| 2026-05-07 17:28 | -34.40737 | -58.39409 | 6980 ft | 255 kts | 341° |
| 2026-05-07 17:28 | -34.39056 | -58.40037 | 7709 ft | 258 kts | 341° |
| 2026-05-07 17:28 | -34.37330 | -58.40682 | 8449 ft | 261 kts | 341° |
| 2026-05-07 17:29 | -34.35577 | -58.41333 | 9184 ft | 266 kts | 341° |
| 2026-05-07 17:29 | -34.33798 | -58.41988 | 9894 ft | 269 kts | 341° |
| 2026-05-07 17:29 | -34.31942 | -58.42670 | 10162 ft | 290 kts | 341° |
| 2026-05-07 17:29 | -34.29934 | -58.43405 | 10337 ft | 312 kts | 342° |
| 2026-05-07 17:30 | -34.27786 | -58.44188 | 10492 ft | 334 kts | 342° |
| 2026-05-07 17:30 | -34.25501 | -58.45017 | 10780 ft | 348 kts | 342° |
| 2026-05-07 17:30 | -34.23128 | -58.45875 | 11315 ft | 354 kts | 341° |
| 2026-05-07 17:30 | -34.20756 | -58.46730 | 11959 ft | 357 kts | 341° |
| 2026-05-07 17:31 | -34.18367 | -58.47591 | 12590 ft | 360 kts | 341° |
| 2026-05-07 17:31 | -34.15983 | -58.48450 | 13167 ft | 364 kts | 341° |
| 2026-05-07 17:31 | -34.13550 | -58.49327 | 13722 ft | 367 kts | 341° |
| 2026-05-07 17:31 | -34.11062 | -58.50222 | 14318 ft | 368 kts | 340° |
| 2026-05-07 17:32 | -34.08606 | -58.51106 | 14946 ft | 368 kts | 340° |
| 2026-05-07 17:32 | -34.06149 | -58.51989 | 15578 ft | 369 kts | 340° |
| 2026-05-07 17:32 | -34.03690 | -58.52873 | 16190 ft | 369 kts | 339° |
| 2026-05-07 17:32 | -34.02059 | -58.53460 | 16579 ft | 369 kts | 339° |
| 2026-05-07 17:33 | -33.98761 | -58.54645 | 17376 ft | 371 kts | 339° |
| 2026-05-07 17:33 | -33.96288 | -58.55532 | 17947 ft | 372 kts | 339° |
| 2026-05-07 17:33 | -33.93808 | -58.56421 | 18453 ft | 372 kts | 339° |
| 2026-05-07 17:33 | -33.91302 | -58.57245 | 18915 ft | 376 kts | 343° |
| 2026-05-07 17:34 | -33.88687 | -58.57668 | 19371 ft | 384 kts | 352° |
| 2026-05-07 17:34 | -33.86013 | -58.57774 | 19861 ft | 386 kts | 352° |
| 2026-05-07 17:34 | -33.83328 | -58.57870 | 20325 ft | 387 kts | 352° |
| 2026-05-07 17:34 | -33.80671 | -58.57969 | 20785 ft | 388 kts | 352° |
| 2026-05-07 17:35 | -33.77966 | -58.58075 | 21214 ft | 390 kts | 352° |
| 2026-05-07 17:35 | -33.75248 | -58.58187 | 21661 ft | 392 kts | 352° |
| 2026-05-07 17:35 | -33.72522 | -58.58303 | 22110 ft | 392 kts | 352° |
| 2026-05-07 17:35 | -33.69788 | -58.58420 | 22527 ft | 394 kts | 353° |
| 2026-05-07 17:36 | -33.67042 | -58.58540 | 22917 ft | 396 kts | 353° |
| 2026-05-07 17:36 | -33.64279 | -58.58661 | 23301 ft | 398 kts | 353° |
| 2026-05-07 17:36 | -33.61516 | -58.58781 | 23637 ft | 399 kts | 353° |
| 2026-05-07 17:36 | -33.58696 | -58.58904 | 23965 ft | 400 kts | 353° |
| 2026-05-07 17:37 | -33.55950 | -58.59024 | 24270 ft | 402 kts | 353° |
| 2026-05-07 17:37 | -33.53111 | -58.59148 | 24583 ft | 404 kts | 353° |
| 2026-05-07 17:37 | -33.50300 | -58.59270 | 24916 ft | 404 kts | 353° |
| 2026-05-07 17:37 | -33.47521 | -58.59390 | 25225 ft | 406 kts | 353° |
| 2026-05-07 17:38 | -33.44693 | -58.59513 | 25498 ft | 408 kts | 353° |
| 2026-05-07 17:38 | -33.41854 | -58.59637 | 25786 ft | 409 kts | 353° |
| 2026-05-07 17:38 | -33.39011 | -58.59760 | 26089 ft | 410 kts | 353° |
| 2026-05-07 17:38 | -33.36151 | -58.59884 | 26370 ft | 411 kts | 353° |
| 2026-05-07 17:39 | -33.33287 | -58.60008 | 26629 ft | 413 kts | 353° |
| 2026-05-07 17:39 | -33.30413 | -58.60132 | 26890 ft | 414 kts | 354° |
| 2026-05-07 17:39 | -33.27533 | -58.60256 | 27240 ft | 413 kts | 354° |
| 2026-05-07 17:39 | -33.24665 | -58.60379 | 27669 ft | 411 kts | 354° |
| 2026-05-07 17:40 | -33.21818 | -58.60501 | 28081 ft | 409 kts | 354° |
| 2026-05-07 17:40 | -33.18977 | -58.60624 | 28453 ft | 408 kts | 354° |
| 2026-05-07 17:40 | -33.16141 | -58.60747 | 28860 ft | 406 kts | 354° |
| 2026-05-07 17:40 | -33.13322 | -58.60868 | 29268 ft | 405 kts | 354° |
| 2026-05-07 17:41 | -33.10511 | -58.60990 | 29625 ft | 405 kts | 354° |
| 2026-05-07 17:41 | -33.07697 | -58.61111 | 29965 ft | 404 kts | 354° |
| 2026-05-07 17:41 | -33.04898 | -58.61232 | 30335 ft | 401 kts | 354° |
| 2026-05-07 17:41 | -33.02106 | -58.61194 | 30676 ft | 403 kts | 360° |
| 2026-05-07 17:42 | -32.99310 | -58.60750 | 30943 ft | 407 kts | 6° |
| 2026-05-07 17:42 | -32.96556 | -58.59856 | 31209 ft | 412 kts | 11° |
| 2026-05-07 17:42 | -32.93828 | -58.58840 | 31552 ft | 410 kts | 11° |
| 2026-05-07 17:42 | -32.91108 | -58.57826 | 31872 ft | 408 kts | 10° |
| 2026-05-07 17:43 | -32.88404 | -58.56824 | 32177 ft | 407 kts | 10° |
| 2026-05-07 17:43 | -32.85700 | -58.55830 | 32470 ft | 406 kts | 10° |
| 2026-05-07 17:43 | -32.83007 | -58.54846 | 32744 ft | 405 kts | 9° |
| 2026-05-07 17:43 | -32.80291 | -58.53859 | 32697 ft | 408 kts | 9° |
| 2026-05-07 17:44 | -32.74879 | -58.51893 | 32708 ft | 404 kts | 9° |
| 2026-05-07 17:44 | -32.69528 | -58.49950 | 32688 ft | 400 kts | 9° |
| 2026-05-07 17:45 | -32.64219 | -58.48027 | 32692 ft | 397 kts | 9° |
| 2026-05-07 17:45 | -32.58944 | -58.46120 | 32682 ft | 396 kts | 9° |
| 2026-05-07 17:46 | -32.53671 | -58.44216 | 32697 ft | 396 kts | 9° |
| 2026-05-07 17:46 | -32.48395 | -58.42313 | 32677 ft | 397 kts | 9° |
| 2026-05-07 17:47 | -32.43105 | -58.40406 | 32694 ft | 398 kts | 9° |
| 2026-05-07 17:47 | -32.37790 | -58.38492 | 32679 ft | 400 kts | 9° |
| 2026-05-07 17:48 | -32.32454 | -58.36573 | 32696 ft | 401 kts | 9° |
| 2026-05-07 17:48 | -32.27112 | -58.34650 | 32684 ft | 402 kts | 9° |
| 2026-05-07 17:49 | -32.21749 | -58.32716 | 32692 ft | 403 kts | 9° |
| 2026-05-07 17:49 | -32.16390 | -58.30785 | 32670 ft | 403 kts | 9° |
| 2026-05-07 17:50 | -32.11933 | -58.29180 | 32683 ft | 403 kts | 9° |
| 2026-05-07 17:50 | -32.05716 | -58.26945 | 32668 ft | 402 kts | 9° |
| 2026-05-07 17:51 | -32.01241 | -58.25339 | 32676 ft | 401 kts | 9° |
| 2026-05-07 17:51 | -31.95907 | -58.23426 | 32664 ft | 400 kts | 9° |
| 2026-05-07 17:52 | -31.90588 | -58.21522 | 32671 ft | 399 kts | 9° |
| 2026-05-07 17:52 | -31.85282 | -58.19624 | 32659 ft | 398 kts | 9° |
| 2026-05-07 17:53 | -31.79984 | -58.17732 | 32664 ft | 397 kts | 9° |
| 2026-05-07 17:53 | -31.74697 | -58.15846 | 32665 ft | 397 kts | 10° |
| 2026-05-07 17:54 | -31.69403 | -58.13960 | 32670 ft | 398 kts | 10° |
| 2026-05-07 17:54 | -31.64108 | -58.12076 | 32660 ft | 398 kts | 10° |
| 2026-05-07 17:55 | -31.58819 | -58.10195 | 32678 ft | 397 kts | 10° |
| 2026-05-07 17:55 | -31.53540 | -58.08320 | 32679 ft | 397 kts | 10° |
| 2026-05-07 17:56 | -31.48257 | -58.06447 | 32700 ft | 396 kts | 10° |
| 2026-05-07 17:56 | -31.42973 | -58.04575 | 32692 ft | 397 kts | 10° |
| 2026-05-07 17:57 | -31.38582 | -58.03022 | 32687 ft | 397 kts | 10° |
| 2026-05-07 17:57 | -31.32397 | -58.00836 | 32634 ft | 398 kts | 10° |
| 2026-05-07 17:58 | -31.27100 | -57.98966 | 32649 ft | 398 kts | 10° |
| 2026-05-07 17:58 | -31.21785 | -57.97092 | 32635 ft | 399 kts | 10° |
| 2026-05-07 17:59 | -31.16459 | -57.95217 | 32636 ft | 401 kts | 11° |
| 2026-05-07 17:59 | -31.11109 | -57.93335 | 32628 ft | 402 kts | 11° |
| 2026-05-07 18:00 | -31.05741 | -57.91449 | 32628 ft | 404 kts | 11° |
| 2026-05-07 18:00 | -31.00346 | -57.89556 | 32621 ft | 406 kts | 11° |
| 2026-05-07 18:01 | -30.94929 | -57.87657 | 32624 ft | 408 kts | 11° |
| 2026-05-07 18:01 | -30.89513 | -57.85761 | 32617 ft | 410 kts | 11° |
| 2026-05-07 18:02 | -30.81291 | -57.82886 | 32621 ft | 412 kts | 11° |
| 2026-05-07 18:03 | -30.75780 | -57.80961 | 32616 ft | 414 kts | 11° |
| 2026-05-07 18:03 | -30.70262 | -57.79037 | 32621 ft | 415 kts | 11° |
| 2026-05-07 18:04 | -30.64724 | -57.77100 | 32617 ft | 416 kts | 11° |
| 2026-05-07 18:04 | -30.59188 | -57.75156 | 32618 ft | 416 kts | 11° |
| 2026-05-07 18:05 | -30.53646 | -57.73212 | 32613 ft | 416 kts | 11° |
| 2026-05-07 18:05 | -30.48104 | -57.71272 | 32608 ft | 416 kts | 11° |
| 2026-05-07 18:06 | -30.42562 | -57.69335 | 32605 ft | 416 kts | 11° |
| 2026-05-07 18:06 | -30.37012 | -57.67396 | 32610 ft | 416 kts | 11° |
| 2026-05-07 18:07 | -30.31460 | -57.65459 | 32600 ft | 417 kts | 11° |
| 2026-05-07 18:07 | -30.25988 | -57.63128 | 32596 ft | 425 kts | 20° |
| 2026-05-07 18:08 | -30.20969 | -57.59348 | 32595 ft | 433 kts | 27° |
| 2026-05-07 18:08 | -30.16031 | -57.55354 | 32594 ft | 433 kts | 27° |
| 2026-05-07 18:09 | -30.11078 | -57.51378 | 32594 ft | 434 kts | 27° |
| 2026-05-07 18:09 | -30.06106 | -57.47420 | 32595 ft | 435 kts | 27° |
| 2026-05-07 18:10 | -30.01111 | -57.43458 | 32586 ft | 436 kts | 27° |
| 2026-05-07 18:10 | -29.96114 | -57.39501 | 32590 ft | 436 kts | 27° |
| 2026-05-07 18:11 | -29.91104 | -57.35537 | 32592 ft | 437 kts | 27° |
| 2026-05-07 18:11 | -29.86094 | -57.31578 | 32582 ft | 437 kts | 27° |
| 2026-05-07 18:12 | -29.81072 | -57.27614 | 32582 ft | 437 kts | 27° |
| 2026-05-07 18:12 | -29.76051 | -57.23656 | 32576 ft | 438 kts | 27° |
| 2026-05-07 18:13 | -29.71022 | -57.19696 | 32578 ft | 438 kts | 27° |
| 2026-05-07 18:13 | -29.65981 | -57.15732 | 32580 ft | 439 kts | 27° |
| 2026-05-07 18:14 | -29.60938 | -57.11772 | 32586 ft | 440 kts | 27° |
| 2026-05-07 18:14 | -29.55877 | -57.07802 | 32588 ft | 441 kts | 27° |
| 2026-05-07 18:15 | -29.50795 | -57.03821 | 32580 ft | 443 kts | 27° |
| 2026-05-07 18:15 | -29.45709 | -56.99841 | 32593 ft | 443 kts | 27° |
| 2026-05-07 18:16 | -29.40612 | -56.95857 | 32600 ft | 443 kts | 27° |
| 2026-05-07 18:16 | -29.35512 | -56.91876 | 32605 ft | 444 kts | 26° |
| 2026-05-07 18:17 | -29.30407 | -56.87897 | 32605 ft | 444 kts | 26° |
| 2026-05-07 18:17 | -29.25288 | -56.83911 | 32611 ft | 445 kts | 26° |
| 2026-05-07 18:18 | -29.20164 | -56.79926 | 32611 ft | 446 kts | 26° |
| 2026-05-07 18:18 | -29.15019 | -56.75930 | 32616 ft | 447 kts | 26° |
| 2026-05-07 18:19 | -29.09861 | -56.71929 | 32616 ft | 448 kts | 26° |
| 2026-05-07 18:19 | -29.04693 | -56.67924 | 32616 ft | 450 kts | 26° |
| 2026-05-07 18:20 | -28.99500 | -56.63905 | 32619 ft | 451 kts | 26° |
| 2026-05-07 18:20 | -28.94295 | -56.59880 | 32615 ft | 453 kts | 26° |
| 2026-05-07 18:21 | -28.89070 | -56.55845 | 32615 ft | 454 kts | 26° |
| 2026-05-07 18:21 | -28.83825 | -56.51803 | 32611 ft | 455 kts | 26° |
| 2026-05-07 18:22 | -28.78564 | -56.47758 | 32609 ft | 457 kts | 26° |
| 2026-05-07 18:22 | -28.73285 | -56.43701 | 32604 ft | 459 kts | 26° |
| 2026-05-07 18:23 | -28.67986 | -56.39633 | 32605 ft | 460 kts | 26° |
| 2026-05-07 18:23 | -28.62666 | -56.35553 | 32607 ft | 462 kts | 26° |
| 2026-05-07 18:24 | -28.57322 | -56.31460 | 32604 ft | 463 kts | 26° |
| 2026-05-07 18:24 | -28.51965 | -56.27362 | 32600 ft | 465 kts | 26° |
| 2026-05-07 18:25 | -28.46586 | -56.23251 | 32597 ft | 466 kts | 26° |
| 2026-05-07 18:25 | -28.41199 | -56.19140 | 32600 ft | 467 kts | 26° |
| 2026-05-07 18:26 | -28.35802 | -56.15026 | 32604 ft | 467 kts | 26° |
| 2026-05-07 18:26 | -28.30399 | -56.10913 | 32601 ft | 468 kts | 25° |
| 2026-05-07 18:27 | -28.24999 | -56.06807 | 32600 ft | 467 kts | 25° |
| 2026-05-07 18:27 | -28.19604 | -56.02710 | 32606 ft | 466 kts | 25° |
| 2026-05-07 18:28 | -28.14221 | -55.98626 | 32604 ft | 465 kts | 24° |
| 2026-05-07 18:28 | -28.08853 | -55.94560 | 32605 ft | 463 kts | 24° |
| 2026-05-07 18:29 | -28.03537 | -55.90538 | 32607 ft | 462 kts | 24° |
| 2026-05-07 18:29 | -27.98165 | -55.86480 | 32609 ft | 460 kts | 24° |
| 2026-05-07 18:30 | -27.92845 | -55.82464 | 32610 ft | 459 kts | 24° |
| 2026-05-07 18:30 | -27.87573 | -55.78491 | 32622 ft | 458 kts | 23° |
| 2026-05-07 18:31 | -27.83129 | -55.75145 | 32617 ft | 458 kts | 23° |
| 2026-05-07 18:31 | -27.77820 | -55.71152 | 32618 ft | 458 kts | 23° |
| 2026-05-07 18:32 | -27.72523 | -55.67172 | 32617 ft | 458 kts | 23° |
| 2026-05-07 18:32 | -27.67253 | -55.63216 | 32630 ft | 458 kts | 23° |
| 2026-05-07 18:33 | -27.61990 | -55.59042 | 32605 ft | 472 kts | 35° |
| 2026-05-07 18:33 | -27.59933 | -55.56050 | 32651 ft | 494 kts | 52° |
| 2026-05-07 18:33 | -27.58335 | -55.52607 | 32646 ft | 498 kts | 55° |
| 2026-05-07 18:34 | -27.55312 | -55.45566 | 32624 ft | 499 kts | 56° |
| 2026-05-07 18:34 | -27.52289 | -55.38593 | 32637 ft | 498 kts | 55° |
| 2026-05-07 18:35 | -27.49161 | -55.31588 | 32639 ft | 497 kts | 55° |
| 2026-05-07 18:35 | -27.46055 | -55.24702 | 32643 ft | 496 kts | 55° |
| 2026-05-07 18:36 | -27.42932 | -55.17783 | 32644 ft | 495 kts | 55° |
| 2026-05-07 18:36 | -27.39821 | -55.10888 | 32611 ft | 494 kts | 55° |
| 2026-05-07 18:36 | -27.38251 | -55.07415 | 31999 ft | 498 kts | 56° |
| 2026-05-07 18:37 | -27.36687 | -55.03953 | 31404 ft | 496 kts | 56° |
| 2026-05-07 18:37 | -27.35065 | -55.00554 | 30824 ft | 487 kts | 49° |
| 2026-05-07 18:37 | -27.32922 | -54.97721 | 30363 ft | 465 kts | 33° |
| 2026-05-07 18:37 | -27.30357 | -54.95631 | 29924 ft | 450 kts | 25° |
| 2026-05-07 18:38 | -27.27733 | -54.93740 | 29372 ft | 447 kts | 25° |
| 2026-05-07 18:38 | -27.25120 | -54.91878 | 28853 ft | 443 kts | 25° |
| 2026-05-07 18:38 | -27.22531 | -54.90026 | 28351 ft | 440 kts | 25° |
| 2026-05-07 18:38 | -27.19963 | -54.88172 | 27852 ft | 436 kts | 25° |
| 2026-05-07 18:39 | -27.17427 | -54.86325 | 27370 ft | 433 kts | 25° |
| 2026-05-07 18:39 | -27.14912 | -54.84485 | 26898 ft | 430 kts | 26° |
| 2026-05-07 18:39 | -27.12418 | -54.82655 | 26421 ft | 427 kts | 26° |
| 2026-05-07 18:39 | -27.09941 | -54.80836 | 25952 ft | 424 kts | 26° |
| 2026-05-07 18:40 | -27.07478 | -54.79028 | 25473 ft | 422 kts | 26° |
| 2026-05-07 18:40 | -27.05025 | -54.77228 | 24990 ft | 420 kts | 26° |
| 2026-05-07 18:40 | -27.02583 | -54.75439 | 24507 ft | 419 kts | 26° |
| 2026-05-07 18:40 | -27.00147 | -54.73654 | 24024 ft | 417 kts | 26° |
| 2026-05-07 18:41 | -26.97721 | -54.71879 | 23547 ft | 416 kts | 26° |
| 2026-05-07 18:41 | -26.95307 | -54.70112 | 23039 ft | 414 kts | 26° |
| 2026-05-07 18:41 | -26.92897 | -54.68350 | 22514 ft | 411 kts | 26° |
| 2026-05-07 18:41 | -26.90516 | -54.66608 | 22027 ft | 407 kts | 26° |
| 2026-05-07 18:42 | -26.88151 | -54.64879 | 21555 ft | 404 kts | 26° |
| 2026-05-07 18:42 | -26.85810 | -54.63169 | 21104 ft | 400 kts | 26° |
| 2026-05-07 18:42 | -26.83488 | -54.61474 | 20632 ft | 397 kts | 26° |
| 2026-05-07 18:42 | -26.81182 | -54.59793 | 20178 ft | 394 kts | 26° |
| 2026-05-07 18:43 | -26.78893 | -54.58124 | 19713 ft | 391 kts | 26° |
| 2026-05-07 18:43 | -26.76618 | -54.56466 | 19271 ft | 388 kts | 26° |
| 2026-05-07 18:43 | -26.74363 | -54.54824 | 18814 ft | 386 kts | 27° |
| 2026-05-07 18:43 | -26.72111 | -54.53185 | 18341 ft | 385 kts | 27° |
| 2026-05-07 18:44 | -26.69822 | -54.51691 | 17861 ft | 377 kts | 17° |
| 2026-05-07 18:44 | -26.67369 | -54.50741 | 17398 ft | 371 kts | 13° |
| 2026-05-07 18:44 | -26.64916 | -54.49858 | 16929 ft | 368 kts | 12° |
| 2026-05-07 18:44 | -26.62485 | -54.48984 | 16461 ft | 366 kts | 12° |
| 2026-05-07 18:45 | -26.60072 | -54.48109 | 16012 ft | 363 kts | 12° |
| 2026-05-07 18:45 | -26.57680 | -54.47232 | 15583 ft | 361 kts | 12° |
| 2026-05-07 18:45 | -26.55300 | -54.46355 | 15144 ft | 359 kts | 13° |
| 2026-05-07 18:45 | -26.52929 | -54.45475 | 14695 ft | 358 kts | 12° |
| 2026-05-07 18:46 | -26.50572 | -54.44600 | 14245 ft | 357 kts | 12° |
| 2026-05-07 18:46 | -26.48222 | -54.43726 | 13801 ft | 355 kts | 12° |
| 2026-05-07 18:46 | -26.45880 | -54.42856 | 13327 ft | 355 kts | 13° |
| 2026-05-07 18:46 | -26.43547 | -54.41988 | 12863 ft | 353 kts | 13° |
| 2026-05-07 18:47 | -26.41221 | -54.41124 | 12417 ft | 351 kts | 13° |
| 2026-05-07 18:47 | -26.38917 | -54.40268 | 11973 ft | 348 kts | 13° |
| 2026-05-07 18:47 | -26.36620 | -54.39415 | 11536 ft | 346 kts | 13° |
| 2026-05-07 18:47 | -26.34342 | -54.38569 | 11107 ft | 344 kts | 13° |
| 2026-05-07 18:48 | -26.32078 | -54.37729 | 10681 ft | 342 kts | 13° |
| 2026-05-07 18:48 | -26.29823 | -54.36893 | 10270 ft | 340 kts | 13° |
| 2026-05-07 18:48 | -26.27641 | -54.36080 | 10103 ft | 321 kts | 13° |
| 2026-05-07 18:48 | -26.25582 | -54.35316 | 9949 ft | 303 kts | 12° |
| 2026-05-07 18:49 | -26.23591 | -54.34933 | 9814 ft | 280 kts | 359° |
| 2026-05-07 18:49 | -26.21694 | -54.34807 | 9629 ft | 270 kts | 359° |
| 2026-05-07 18:49 | -26.19817 | -54.34698 | 9304 ft | 270 kts | 359° |
| 2026-05-07 18:49 | -26.17940 | -54.34586 | 8999 ft | 270 kts | 359° |
| 2026-05-07 18:50 | -26.16079 | -54.34469 | 8673 ft | 266 kts | 359° |
| 2026-05-07 18:50 | -26.14236 | -54.34349 | 8372 ft | 266 kts | 359° |
| 2026-05-07 18:50 | -26.12389 | -54.34226 | 8078 ft | 266 kts | 360° |
| 2026-05-07 18:50 | -26.10533 | -54.34100 | 7752 ft | 267 kts | 360° |
| 2026-05-07 18:51 | -26.09160 | -54.34006 | 7537 ft | 267 kts | 360° |
| 2026-05-07 18:51 | -26.07316 | -54.33878 | 7342 ft | 259 kts | 360° |
| 2026-05-07 18:51 | -26.05559 | -54.33754 | 7119 ft | 250 kts | 0° |
| 2026-05-07 18:51 | -26.03831 | -54.33634 | 6749 ft | 248 kts | 0° |
| 2026-05-07 18:52 | -26.02118 | -54.33516 | 6386 ft | 246 kts | 0° |
| 2026-05-07 18:52 | -26.00419 | -54.33398 | 5993 ft | 243 kts | 1° |
| 2026-05-07 18:52 | -25.98729 | -54.33280 | 5568 ft | 243 kts | 1° |
| 2026-05-07 18:52 | -25.97057 | -54.33163 | 5262 ft | 239 kts | 1° |
| 2026-05-07 18:53 | -25.95413 | -54.33048 | 4974 ft | 234 kts | 0° |
| 2026-05-07 18:53 | -25.93801 | -54.32936 | 4654 ft | 231 kts | 1° |
| 2026-05-07 18:53 | -25.92195 | -54.32824 | 4252 ft | 231 kts | 1° |
| 2026-05-07 18:53 | -25.90796 | -54.32727 | 3866 ft | 233 kts | 1° |
| 2026-05-07 18:54 | -25.89220 | -54.32574 | 3758 ft | 222 kts | 9° |
| 2026-05-07 18:54 | -25.87822 | -54.31967 | 3701 ft | 209 kts | 20° |
| 2026-05-07 18:54 | -25.86558 | -54.31317 | 3599 ft | 193 kts | 20° |
| 2026-05-07 18:54 | -25.85379 | -54.30718 | 3498 ft | 180 kts | 20° |
| 2026-05-07 18:55 | -25.84256 | -54.30149 | 3251 ft | 176 kts | 20° |
| 2026-05-07 18:55 | -25.83145 | -54.29587 | 3040 ft | 170 kts | 20° |
| 2026-05-07 18:55 | -25.82039 | -54.29440 | 2985 ft | 160 kts | 348° |
| 2026-05-07 18:55 | -25.81091 | -54.30126 | 2960 ft | 175 kts | 309° |
| 2026-05-07 18:56 | -25.80522 | -54.31323 | 2978 ft | 174 kts | 309° |
| 2026-05-07 18:56 | -25.79942 | -54.32496 | 2983 ft | 175 kts | 306° |
| 2026-05-07 18:56 | -25.79408 | -54.33710 | 2978 ft | 173 kts | 305° |
| 2026-05-07 18:56 | -25.78903 | -54.34912 | 2968 ft | 170 kts | 304° |
| 2026-05-07 18:57 | -25.78417 | -54.36084 | 2814 ft | 163 kts | 304° |
| 2026-05-07 18:57 | -25.77952 | -54.37203 | 2628 ft | 155 kts | 305° |
| 2026-05-07 18:57 | -25.77516 | -54.38252 | 2423 ft | 147 kts | 306° |
| 2026-05-07 18:57 | -25.77092 | -54.39265 | 2231 ft | 143 kts | 306° |
| 2026-05-07 18:58 | -25.76671 | -54.40272 | 2058 ft | 144 kts | 306° |
| 2026-05-07 18:58 | -25.76254 | -54.41276 | 1873 ft | 143 kts | 305° |
| 2026-05-07 18:58 | -25.75825 | -54.42302 | 1703 ft | 152 kts | 301° |
| 2026-05-07 18:58 | -25.75374 | -54.43393 | 1461 ft | 156 kts | 302° |
| 2026-05-07 18:59 | -25.74905 | -54.44521 | 1290 ft | 164 kts | 296° |
| 2026-05-07 18:59 | -25.74448 | -54.45642 | 1014 ft | 158 kts | 295° |
| 2026-05-07 18:59 | -25.73999 | -54.46699 | 927 ft | 134 kts | 295° |
| 2026-05-07 18:59 | -25.73709 | -54.47394 | 927 ft | 59 kts | 295° |
| 2026-05-07 19:00 | -25.73578 | -54.47706 | 929 ft | 32 kts | 295° |
| 2026-05-07 19:00 | -25.73502 | -54.47889 | 927 ft | 22 kts | 295° |
| 2026-05-07 19:00 | -25.73416 | -54.48023 | 930 ft | 21 kts | 319° |
| 2026-05-07 19:00 | -25.73334 | -54.48092 | 928 ft | 14 kts | 326° |
| 2026-05-07 19:01 | -25.73250 | -54.48086 | 926 ft | 13 kts | 44° |
| 2026-05-07 19:01 | -25.73232 | -54.47991 | 926 ft | 13 kts | 85° |
| 2026-05-07 19:01 | -25.73224 | -54.47895 | 927 ft | 12 kts | 84° |
| 2026-05-07 19:01 | -25.73226 | -54.47803 | 930 ft | 12 kts | 109° |
| 2026-05-07 19:02 | -25.73247 | -54.47744 | 929 ft | 6 kts | 94° |
| 2026-05-07 19:02 | -25.73223 | -54.47716 | 927 ft | 4 kts | 26° |
| 2026-05-07 19:02 | -25.73211 | -54.47709 | 926 ft | 0 kts | 27° |